createdAt,value
2022-10-05T00:08:51.640Z,6.80
2022-10-05T01:49:32.766Z,7.20
2022-10-05T01:53:22.820Z,7.40
2022-10-05T02:01:03.543Z,7.40
2022-10-05T02:40:32.936Z,7.80
2022-10-05T02:48:58.424Z,7.60
2022-10-05T02:57:17.080Z,7.50
2022-10-05T03:16:14.785Z,6.90
2022-10-05T03:20:11.284Z,6.70
2022-10-05T03:28:43.243Z,6.60
2022-10-05T03:32:52.960Z,6.40
2022-10-05T03:44:17.438Z,5.90
2022-10-05T03:48:01.186Z,5.90
2022-10-05T03:51:23.668Z,6.00
2022-10-05T03:54:28.454Z,6.10
2022-10-05T03:57:55.468Z,6.00
2022-10-05T04:00:38.077Z,5.90
2022-10-05T04:04:07.281Z,5.90
2022-10-05T04:06:57.241Z,6.00
2022-10-05T04:09:43.046Z,6.00
2022-10-05T04:12:49.874Z,6.10
2022-10-05T04:15:38.474Z,6.10
2022-10-05T04:18:27.218Z,6.00
2022-10-05T04:21:23.529Z,5.90
2022-10-05T04:24:35.721Z,5.80
2022-10-05T04:27:16.594Z,5.90
2022-10-05T04:29:54.858Z,5.90
2022-10-05T04:32:30.870Z,5.80
2022-10-05T04:35:27.047Z,5.80
2022-10-05T04:38:58.495Z,5.80
2022-10-05T04:41:43.327Z,5.70
2022-10-05T04:44:44.955Z,5.70
2022-10-05T04:47:38.686Z,5.60
2022-10-05T04:50:06.298Z,5.60
2022-10-05T04:52:59.694Z,5.40
2022-10-05T04:55:53.115Z,5.40
2022-10-05T04:58:33.772Z,5.40
2022-10-05T05:02:08.620Z,5.50
2022-10-05T05:09:20.623Z,5.20
2022-10-05T05:12:13.015Z,5.10
2022-10-05T05:14:47.231Z,5.20
2022-10-05T05:21:42.353Z,5.30
2022-10-05T05:24:42.696Z,5.40
2022-10-05T05:27:19.132Z,5.30
2022-10-05T05:30:03.960Z,5.20
2022-10-05T05:32:44.316Z,5.10
2022-10-05T05:35:27.201Z,5.10
2022-10-05T05:38:20.022Z,5.10
2022-10-05T05:41:12.076Z,5.10
2022-10-05T05:43:59.831Z,5.20
2022-10-05T05:47:01.796Z,5.20
2022-10-05T05:50:05.581Z,5.10
2022-10-05T05:52:41.808Z,5.10
2022-10-05T05:55:36.032Z,5.30
2022-10-05T05:58:13.492Z,5.50
2022-10-05T06:01:05.082Z,5.60
2022-10-05T06:03:55.572Z,5.70
2022-10-05T06:06:38.392Z,5.90
2022-10-05T06:09:30.912Z,5.90
2022-10-05T06:12:38.596Z,6.00
2022-10-05T06:15:24.953Z,6.00
2022-10-05T06:17:56.353Z,6.10
2022-10-05T06:20:46.237Z,6.30
2022-10-05T06:23:22.507Z,6.50
2022-10-05T06:26:12.810Z,6.70
2022-10-05T06:28:42.464Z,6.90
2022-10-05T06:31:36.010Z,7.20
2022-10-05T06:34:21.960Z,7.50
2022-10-05T06:36:55.964Z,7.70
2022-10-05T06:39:41.500Z,7.80
2022-10-05T06:42:58.199Z,7.90
2022-10-05T06:45:56.318Z,8.10
2022-10-05T06:48:40.041Z,8.10
2022-10-05T06:51:24.885Z,8.10
2022-10-05T06:54:33.597Z,8.30
2022-10-05T06:57:36.675Z,8.40
2022-10-05T07:00:24.751Z,8.70
2022-10-05T07:03:03.758Z,9.10
2022-10-05T07:05:42.973Z,9.40
2022-10-05T07:08:16.661Z,9.60
2022-10-05T07:11:04.486Z,9.80
2022-10-05T07:13:45.150Z,10.00
2022-10-05T11:20:26.525Z,18.60
2022-10-05T11:36:44.733Z,18.90
2022-10-05T11:39:55.245Z,19.20
2022-10-05T11:42:56.982Z,19.20
2022-10-05T11:46:47.069Z,19.30
2022-10-05T11:49:58.057Z,19.30
2022-10-05T11:52:53.584Z,19.60
2022-10-05T12:09:02.813Z,19.50
2022-10-05T12:24:38.166Z,19.80
2022-10-05T12:29:08.535Z,19.80
2022-10-05T12:31:50.151Z,19.70
2022-10-05T12:35:01.502Z,19.80
2022-10-05T12:37:57.935Z,19.80
2022-10-05T12:41:13.194Z,19.90
2022-10-05T12:49:03.264Z,19.90
2022-10-05T13:16:13.790Z,20.10
2022-10-05T13:44:09.005Z,19.90
2022-10-05T13:46:48.336Z,19.90
2022-10-05T15:04:34.152Z,19.10
2022-10-05T15:07:36.349Z,19.10
2022-10-05T15:10:46.316Z,19.00
2022-10-05T15:17:03.249Z,19.00
2022-10-05T15:19:48.219Z,18.90
2022-10-05T15:28:09.452Z,18.80
2022-10-05T15:31:04.208Z,18.80
2022-10-05T15:34:09.819Z,18.70
2022-10-05T15:37:19.654Z,18.50
2022-10-05T15:40:17.859Z,18.40
2022-10-05T15:43:03.643Z,18.20
2022-10-05T15:46:39.210Z,18.20
2022-10-05T15:49:28.928Z,18.10
2022-10-05T15:52:02.656Z,17.90
2022-10-05T15:54:41.756Z,17.80
2022-10-05T15:57:36.769Z,17.70
2022-10-05T16:00:20.766Z,17.60
2022-10-05T16:03:14.824Z,17.40
2022-10-05T16:06:34.137Z,17.30
2022-10-05T16:09:16.909Z,17.20
2022-10-05T16:11:58.580Z,17.20
2022-10-05T16:14:54.461Z,17.30
2022-10-05T16:17:37.742Z,17.20
2022-10-05T16:20:38.415Z,17.00
2022-10-05T16:23:52.256Z,16.90
2022-10-05T16:26:38.655Z,16.70
2022-10-05T16:29:15.113Z,16.60
2022-10-05T16:32:10.415Z,16.40
2022-10-05T16:35:20.422Z,16.20
2022-10-05T16:38:07.017Z,15.90
2022-10-05T16:41:09.890Z,15.80
2022-10-05T16:44:24.905Z,15.70
2022-10-05T16:47:10.470Z,15.60
2022-10-05T16:50:02.347Z,15.50
2022-10-05T16:54:07.691Z,15.50
2022-10-05T17:01:21.166Z,15.00
2022-10-05T17:05:05.812Z,14.90
2022-10-05T17:17:25.518Z,14.30
2022-10-05T17:32:06.060Z,13.80
2022-10-05T17:49:25.299Z,13.50
2022-10-05T17:53:29.661Z,13.30
2022-10-05T23:35:18.453Z,11.80
2022-10-05T23:38:01.325Z,12.80
2022-10-05T23:40:50.670Z,13.70
2022-10-05T23:43:28.781Z,14.00
2022-10-05T23:46:11.168Z,14.40
2022-10-05T23:48:47.145Z,14.40
2022-10-05T23:55:10.303Z,14.30
2022-10-05T23:58:48.397Z,14.10
